CW1793 Weather Reports


Display with metric or nautical units.
time (UTC)temp
F
wind
direction
speed
MPH
gust
MPH
rain 1hr
in
rain 24hr
in
rain mn
in
humidity
%
barometer
mb
20181210144505 31 245 6.0 9.0 0.00 0.00 0.00 16 1028.0
20181210143119 31 232 6.0 9.0 0.00 0.00 0.00 15 1028.0
20181210141630 31 233 5.0 7.0 0.00 0.00 0.00 15 1028.1
20181210140121 30 213 7.0 9.0 0.00 0.00 0.00 16 1028.2
20181210134623 30 243 7.0 9.0 0.00 0.00 0.00 16 1028.4
20181210133123 31 234 5.0 8.0 0.00 0.00 0.00 16 1028.5
20181210131557 30 236 8.0 10.0 0.00 0.00 0.00 18 1028.7
20181210130046 29 237 7.0 9.0 0.00 0.00 0.00 18 1028.9
20181210124548 29 216 0.0 4.0 0.00 0.00 0.00 20 1028.9
20181210123043 29 216 3.0 6.0 0.00 0.00 0.00 19 1028.9
20181210121524 29 231 6.0 8.0 0.00 0.00 0.00 21 1029.0
20181210120025 27 223 4.0 7.0 0.00 0.00 0.00 23 1029.1
20181210114512 27 236 4.0 8.0 0.00 0.00 0.00 23 1029.1
20181210113012 28 236 5.0 9.0 0.00 0.00 0.00 23 1029.0
20181210111505 28 234 6.0 9.0 0.00 0.00 0.00 22 1029.0
20181210110228 28 239 7.0 8.0 0.00 0.00 0.00 23 1028.9
20181210104653 27 234 6.0 9.0 0.00 0.00 0.00 25 1028.9
20181210103120 26 248 5.0 8.0 0.00 0.00 0.00 27 1029.1
20181210101609 26 236 5.0 9.0 0.00 0.00 0.00 27 1029.3
20181210100152 27 240 5.0 8.0 0.00 0.00 0.00 26 1029.5
20181210094624 26 219 6.0 10.0 0.00 0.00 0.00 28 1029.5
20181210093113 27 252 6.0 10.0 0.00 0.00 0.00 27 1029.7
20181210091616 26 239 6.0 9.0 0.00 0.00 0.00 29 1029.7
20181210090057 27 250 7.0 9.0 0.00 0.00 0.00 29 1029.8
20181210084525 27 247 4.0 7.0 0.00 0.00 0.00 29 1029.7
20181210083046 27 237 0.0 0.0 0.00 0.00 0.00 31 1029.6
20181210081541 27 237 3.0 5.0 0.00 0.00 0.00 30 1029.7
20181210080031 27 241 3.0 7.0 0.00 0.00 0.00 31 1029.7
20181210074523 27 234 5.0 7.0 0.00 0.00 0.00 33 1029.8
20181210073018 27 227 4.0 6.0 0.00 0.00 0.00 34 1029.9
20181210071540 27 227 4.0 7.0 0.00 0.00 0.00 36 1029.9
20181210070039 27 229 2.0 4.0 0.00 0.00 0.00 37 1030.1
20181210064519 27 242 3.0 7.0 0.00 0.00 0.00 38 1030.4
20181210063007 28 237 3.0 7.0 0.00 0.00 0.00 39 1030.6
20181210061509 28 235 6.0 8.0 0.00 0.00 0.00 40 1030.7
20181210060017 28 236 4.0 7.0 0.00 0.00 0.00 43 1030.9
20181210054509 28 230 4.0 8.0 0.00 0.00 0.00 44 1031.0
20181210053015 28 234 4.0 6.0 0.00 0.00 0.00 44 1031.0
20181210051504 27 206 2.0 5.0 0.00 0.00 0.00 47 1031.0
20181210050004 27 229 3.0 5.0 0.00 0.00 0.00 49 1031.1
20181210044507 28 217 2.0 5.0 0.00 0.00 0.00 48 1031.1
20181210043002 28 226 5.0 7.0 0.00 0.00 0.00 48 1031.2
20181210041641 28 215 4.0 7.0 0.00 0.00 0.00 48 1031.1
20181210040156 28 215 4.0 8.0 0.00 0.00 0.00 48 1031.1
20181210034620 28 227 5.0 7.0 0.00 0.00 0.00 49 1031.4
20181210033125 29 222 4.0 8.0 0.00 0.00 0.00 47 1031.4
20181210031753 28 209 6.0 8.0 0.00 0.00 0.00 48 1031.4
20181210030156 28 211 5.0 8.0 0.00 0.00 0.00 49 1031.7
20181210024821 29 238 5.0 10.0 0.00 0.00 0.00 48 1031.8
20181210023254 28 235 5.0 8.0 0.00 0.00 0.00 48 1031.9
20181210021711 29 234 5.0 7.0 0.00 0.00 0.00 48 1031.8
20181210020233 29 229 5.0 8.0 0.00 0.00 0.00 47 1031.8
20181210014707 29 237 4.0 7.0 0.00 0.00 0.00 48 1032.0
20181210013141 29 232 1.0 5.0 0.00 0.00 0.00 48 1032.0
20181210011652 29 48 0.0 0.0 0.00 0.00 0.00 48 1031.9
20181210010139 29 48 0.0 0.0 0.00 0.00 0.00 47 1031.9
20181210004620 29 48 0.0 1.0 0.00 0.00 0.00 46 1031.7
20181210003136 30 48 1.0 4.0 0.00 0.00 0.00 44 1031.6
20181210001637 31 49 1.0 3.0 0.00 0.00 0.00 42 1031.5
20181210000137 33 49 0.0 2.0 0.00 0.00 0.00 39 1031.6
20181209234609 35 49 1.0 4.0 0.00 0.00 0.00 37 1031.4
20181209233123 37 55 2.0 6.0 0.00 0.00 0.00 33 1031.1
20181209231643 41 53 0.0 4.0 0.00 0.00 0.00 31 1030.7
20181209230132 42 10 3.0 5.0 0.00 0.00 0.00 30 1030.3
20181209224636 42 68 1.0 7.0 0.00 0.00 0.00 31 1030.1
20181209223110 42 17 3.0 11.0 0.00 0.00 0.00 31 1030.1
20181209221709 42 9 4.0 10.0 0.00 0.00 0.00 30 1030.1
20181209220142 42 355 4.0 10.0 0.00 0.00 0.00 30 1030.1
20181209214553 42 350 4.0 11.0 0.00 0.00 0.00 30 1030.1
20181209213145 42 335 5.0 14.0 0.00 0.00 0.00 30 1030.1
20181209211609 42 277 10.0 16.0 0.00 0.00 0.00 29 1030.1
20181209210056 42 350 6.0 16.0 0.00 0.00 0.00 30 1030.2
20181209204617 42 348 6.0 12.0 0.00 0.00 0.00 30 1030.2
20181209203105 42 291 2.0 12.0 0.00 0.00 0.00 32 1030.3
20181209201635 42 333 3.0 11.0 0.00 0.00 0.00 33 1030.5
20181209200149 41 18 7.0 15.0 0.00 0.00 0.00 34 1030.4
20181209194537 41 360 6.0 11.0 0.00 0.00 0.00 37 1030.5
20181209193106 40 301 3.0 8.0 0.00 0.00 0.00 43 1030.7
20181209191551 39 360 3.0 8.0 0.00 0.00 0.00 43 1031.0
20181209190029 39 42 3.0 6.0 0.00 0.00 0.00 46 1031.0
20181209184529 39 44 1.0 6.0 0.00 0.00 0.00 46 1031.2
20181209183054 39 54 3.0 10.0 0.00 0.00 0.00 48 1031.4
20181209181529 38 360 3.0 8.0 0.00 0.00 0.00 49 1031.7
20181209180028 38 57 2.0 7.0 0.00 0.00 0.00 50 1031.8
20181209174522 36 360 2.0 6.0 0.00 0.00 0.00 55 1032.1
20181209173047 35 35 3.0 8.0 0.00 0.00 0.00 57 1032.2
20181209171509 35 306 2.0 8.0 0.00 0.00 0.00 57 1032.3
20181209170001 34 355 4.0 8.0 0.00 0.00 0.00 59 1032.4
20181209164647 34 320 5.0 9.0 0.00 0.00 0.00 60 1032.3
20181209163142 32 342 3.0 8.0 0.00 0.00 0.00 64 1032.1
20181209161657 30 306 4.0 8.0 0.00 0.00 0.00 64 1032.1
20181209160109 29 297 5.0 9.0 0.00 0.00 0.00 66 1031.7
20181209154621 28 257 4.0 12.0 0.00 0.00 0.00 69 1031.6
20181209153137 27 284 6.0 9.0 0.00 0.00 0.00 70 1031.4
20181209151632 27 275 4.0 7.0 0.00 0.00 0.00 71 1031.3
20181209150146 26 265 2.0 6.0 0.00 0.00 0.00 73 1031.0